Time;durP1;ratioP1;P1;durP2;ratioP2;P2;SDS_P1;SDS_P2;PMS_P1;PMS_P2;Temp;Humidity;BMP_temperature;BMP_pressure;BME280_temperature;BME280_humidity;BME280_pressure;Samples;Min_cycle;Max_cycle;Signal;HPM_P1;HPM_P2
2023/01/27 00:00:34;;;;;;;35.47;14.45;;;;;;;0.41;100.00;96950.69;5025309;28;20024;-83
2023/01/27 00:02:59;;;;;;;28.02;12.90;;;;;;;0.41;100.00;96950.69;5024144;28;20438;-82
2023/01/27 00:05:25;;;;;;;24.50;11.70;;;;;;;0.33;100.00;96954.50;5017872;28;20032;-84
2023/01/27 00:07:51;;;;;;;22.58;11.02;;;;;;;0.39;100.00;96964.81;5017522;28;20405;-84
2023/01/27 00:10:18;;;;;;;27.70;12.63;;;;;;;0.44;100.00;96974.28;5021403;28;20034;-84
2023/01/27 00:15:30;;;;;;;27.23;10.43;;;;;;;0.38;100.00;96976.22;5013814;28;20028;-84
2023/01/27 00:17:55;;;;;;;25.20;11.32;;;;;;;0.43;100.00;96995.38;5008866;28;20572;-82
2023/01/27 00:25:57;;;;;;;19.45;9.45;;;;;;;0.47;100.00;96989.09;5023523;28;20136;-84
2023/01/27 00:28:24;;;;;;;26.85;11.23;;;;;;;0.48;100.00;96982.94;5025741;28;20024;-83
2023/01/27 00:30:49;;;;;;;26.40;12.32;;;;;;;0.41;100.00;96963.84;5016734;28;20052;-84
2023/01/27 00:33:27;;;;;;;22.33;10.30;;;;;;;0.45;100.00;96969.88;5050486;28;20068;-84
2023/01/27 00:36:04;;;;;;;24.70;9.35;;;;;;;0.39;100.00;96968.31;5011127;28;20027;-84
2023/01/27 00:38:32;;;;;;;15.52;7.50;;;;;;;0.34;100.00;96962.31;5017282;28;20536;-84
2023/01/27 00:43:42;;;;;;;19.20;8.13;;;;;;;0.27;100.00;96937.16;5018367;28;20031;-83
2023/01/27 00:46:08;;;;;;;21.05;8.30;;;;;;;0.31;100.00;96946.63;5013116;28;20115;-83
2023/01/27 00:48:33;;;;;;;18.30;8.68;;;;;;;0.25;100.00;96952.09;5013309;28;20152;-83
2023/01/27 00:50:59;;;;;;;20.52;9.45;;;;;;;0.18;100.00;96955.84;4996900;28;20033;-84
2023/01/27 00:53:24;;;;;;;24.63;9.88;;;;;;;0.27;100.00;96975.72;5028998;28;20052;-84
2023/01/27 00:55:50;;;;;;;20.75;9.57;;;;;;;0.24;100.00;96970.56;5004794;28;20037;-83
2023/01/27 00:58:16;;;;;;;25.48;10.05;;;;;;;0.23;100.00;96972.31;5012990;28;20108;-84
2023/01/27 01:00:41;;;;;;;23.63;9.00;;;;;;;0.32;100.00;96989.56;4996634;28;20400;-84
2023/01/27 01:03:07;;;;;;;22.27;9.85;;;;;;;0.37;100.00;96983.25;5021263;28;20036;-83
2023/01/27 01:05:32;;;;;;;23.40;9.65;;;;;;;0.32;100.00;96974.66;5024459;28;20029;-84
2023/01/27 01:07:58;;;;;;;23.35;10.32;;;;;;;0.39;100.00;96997.25;5016225;28;20582;-85
2023/01/27 01:10:23;;;;;;;22.08;10.57;;;;;;;0.44;100.00;97004.97;5015909;28;20119;-83
2023/01/27 01:12:49;;;;;;;19.15;8.50;;;;;;;0.39;100.00;96991.97;5032948;28;20069;-85
2023/01/27 01:15:14;;;;;;;23.38;8.80;;;;;;;0.37;100.00;96977.16;5007167;28;20116;-81
2023/01/27 01:17:40;;;;;;;22.13;10.07;;;;;;;0.29;100.00;96976.53;5034724;28;20029;-83
2023/01/27 01:20:06;;;;;;;19.80;9.10;;;;;;;0.29;100.00;96980.00;5007872;28;20499;-84
2023/01/27 01:22:32;;;;;;;16.08;8.07;;;;;;;0.37;100.00;96985.06;5012969;28;20481;-83
2023/01/27 01:24:57;;;;;;;21.13;7.90;;;;;;;0.36;100.00;96983.31;5012714;28;20025;-84
2023/01/27 01:27:23;;;;;;;17.13;7.28;;;;;;;0.41;100.00;96979.63;5020932;28;20556;-84
2023/01/27 01:29:48;;;;;;;16.42;7.30;;;;;;;0.38;100.00;96973.59;5009380;28;20021;-85
2023/01/27 01:32:14;;;;;;;13.50;6.70;;;;;;;0.30;100.00;96965.97;5032444;28;20029;-83
2023/01/27 01:34:39;;;;;;;13.75;6.70;;;;;;;0.21;100.00;96958.38;5028759;28;20033;-84
2023/01/27 01:37:05;;;;;;;14.27;6.63;;;;;;;0.23;100.00;96964.44;5032919;28;20029;-84
2023/01/27 01:39:31;;;;;;;14.10;6.72;;;;;;;0.15;100.00;96950.66;5016213;28;20457;-84
2023/01/27 01:41:57;;;;;;;17.80;7.10;;;;;;;0.25;100.00;96957.34;5021775;28;20025;-84
2023/01/27 01:44:25;;;;;;;14.93;6.38;;;;;;;0.26;100.00;96948.56;5029476;28;20057;-84
2023/01/27 01:46:51;;;;;;;17.10;6.82;;;;;;;0.32;100.00;96951.00;4999612;28;20118;-83
2023/01/27 01:49:21;;;;;;;16.80;6.80;;;;;;;0.28;100.00;96962.50;5018368;28;20127;-82
2023/01/27 01:51:51;;;;;;;16.98;6.95;;;;;;;0.34;100.00;96967.56;5035736;28;20064;-84
2023/01/27 01:54:26;;;;;;;15.48;6.50;;;;;;;0.33;100.00;96965.00;5025132;28;20045;-84
2023/01/27 01:56:56;;;;;;;14.20;6.03;;;;;;;0.37;100.00;96956.13;5019053;28;20029;-84
2023/01/27 01:59:26;;;;;;;13.52;5.80;;;;;;;0.32;100.00;96937.84;5015733;28;20036;-84
2023/01/27 02:01:56;;;;;;;14.80;6.28;;;;;;;0.25;100.00;96910.00;4999705;28;20499;-84
2023/01/27 02:04:24;;;;;;;11.70;5.88;;;;;;;0.31;100.00;96917.72;5002553;28;20499;-83
2023/01/27 02:07:34;;;;;;;13.63;6.18;;;;;;;0.36;100.00;96914.94;5020709;28;20500;-84
2023/01/27 02:10:01;;;;;;;14.95;7.38;;;;;;;0.31;100.00;96894.03;5046985;28;20029;-84
2023/01/27 02:12:26;;;;;;;16.55;7.25;;;;;;;0.42;100.00;96905.09;5029014;28;20029;-84
2023/01/27 02:14:52;;;;;;;16.00;7.60;;;;;;;0.34;100.00;96893.09;5028351;28;20492;-84
2023/01/27 02:17:18;;;;;;;15.35;7.32;;;;;;;0.25;100.00;96877.59;5018607;28;20032;-83
2023/01/27 02:20:04;;;;;;;18.15;6.70;;;;;;;0.40;100.00;96890.28;5035181;28;20032;-84
2023/01/27 02:22:41;;;;;;;14.45;7.25;;;;;;;0.20;100.00;96867.25;5042273;28;20396;-83
2023/01/27 02:25:33;;;;;;;15.88;7.60;;;;;;;0.31;100.00;96891.41;5026579;28;20123;-83
2023/01/27 02:27:59;;;;;;;14.52;7.32;;;;;;;0.30;100.00;96894.97;4995192;28;20092;-83
2023/01/27 02:30:25;;;;;;;20.98;8.30;;;;;;;0.43;100.00;96896.25;5018133;28;20389;-84
2023/01/27 02:32:50;;;;;;;15.65;7.85;;;;;;;0.25;100.00;96880.22;5034873;28;20040;-84
2023/01/27 02:35:30;;;;;;;17.80;8.80;;;;;;;0.23;100.00;96884.69;5037669;28;20071;-84
2023/01/27 02:37:56;;;;;;;13.80;7.13;;;;;;;0.17;100.00;96891.00;5008771;28;20029;-85
2023/01/27 02:40:23;;;;;;;14.95;6.70;;;;;;;0.11;100.00;96867.53;5021261;28;20129;-84
2023/01/27 02:42:48;;;;;;;16.90;6.45;;;;;;;0.11;100.00;96872.81;5023962;28;20435;-84
2023/01/27 02:45:17;;;;;;;12.77;6.60;;;;;;;0.18;100.00;96868.22;5017807;28;20108;-84
2023/01/27 02:47:42;;;;;;;15.45;6.78;;;;;;;0.21;100.00;96886.50;5014904;28;20021;-85
2023/01/27 02:50:08;;;;;;;14.57;6.88;;;;;;;0.06;100.00;96872.09;5020043;28;20040;-84
2023/01/27 02:52:34;;;;;;;21.08;7.55;;;;;;;0.13;100.00;96873.59;5025466;28;20516;-84
2023/01/27 02:54:59;;;;;;;13.88;6.63;;;;;;;0.24;100.00;96896.94;5023371;28;20029;-84
2023/01/27 02:57:25;;;;;;;17.92;7.60;;;;;;;0.34;100.00;96906.25;5040896;28;20080;-84
2023/01/27 02:59:54;;;;;;;20.30;8.82;;;;;;;0.25;100.00;96888.97;5014970;28;20119;-84
2023/01/27 03:02:21;;;;;;;19.58;8.13;;;;;;;0.29;100.00;96890.59;5014543;28;20037;-84
2023/01/27 03:04:48;;;;;;;20.88;8.65;;;;;;;0.30;100.00;96889.72;5014769;28;20127;-84
2023/01/27 03:07:23;;;;;;;19.00;8.63;;;;;;;0.32;100.00;96906.28;5022562;28;20021;-84
2023/01/27 03:09:48;;;;;;;18.92;8.05;;;;;;;0.21;100.00;96897.03;5016536;28;20042;-84
2023/01/27 03:12:19;;;;;;;17.85;8.43;;;;;;;0.30;100.00;96908.13;5014959;28;20111;-85
2023/01/27 03:20:22;;;;;;;25.80;11.75;;;;;;;0.19;100.00;96889.19;5036526;28;20036;-84
2023/01/27 03:22:48;;;;;;;27.50;11.57;;;;;;;0.22;100.00;96883.81;5022141;28;20025;-84
2023/01/27 03:25:14;;;;;;;20.48;10.48;;;;;;;0.19;100.00;96870.78;5013361;28;20026;-83
2023/01/27 03:27:40;;;;;;;17.45;9.15;;;;;;;0.23;100.00;96875.03;5021347;28;20503;-83
2023/01/27 03:30:06;;;;;;;24.33;10.52;;;;;;;0.37;100.00;96893.84;5001516;28;20151;-83
2023/01/27 03:32:32;;;;;;;18.27;8.30;;;;;;;0.25;100.00;96864.44;5015393;28;20025;-83
2023/01/27 03:34:59;;;;;;;18.83;8.55;;;;;;;0.24;100.00;96855.72;5022778;28;20416;-85
2023/01/27 03:48:30;;;;;;;24.55;11.55;;;;;;;0.45;100.00;96841.88;5030531;28;20028;-84
2023/01/27 03:51:00;;;;;;;26.95;12.77;;;;;;;0.47;100.00;96858.44;5030210;28;20032;-84
2023/01/27 03:53:26;;;;;;;25.58;11.18;;;;;;;0.42;100.00;96846.38;5008283;28;20073;-84
2023/01/27 03:55:52;;;;;;;30.30;13.23;;;;;;;0.51;100.00;96857.44;5017692;28;20029;-84
2023/01/27 03:58:29;;;;;;;33.78;14.85;;;;;;;0.52;100.00;96863.56;5016875;28;20083;-83
2023/01/27 04:00:59;;;;;;;35.50;15.93;;;;;;;0.43;100.00;96846.28;5022918;28;20030;-84
2023/01/27 04:09:00;;;;;;;33.05;14.68;;;;;;;0.59;100.00;96853.66;5034170;28;20067;-83
2023/01/27 04:14:10;;;;;;;42.47;18.40;;;;;;;0.64;100.00;96880.69;5015561;28;20028;-84
2023/01/27 04:16:36;;;;;;;42.75;16.80;;;;;;;0.62;100.00;96880.75;5008794;28;20021;-83
2023/01/27 04:19:03;;;;;;;44.13;17.67;;;;;;;0.52;100.00;96848.63;5031295;28;20035;-84
2023/01/27 04:21:29;;;;;;;38.33;16.52;;;;;;;0.48;100.00;96868.06;5010236;28;20047;-84
2023/01/27 04:23:54;;;;;;;40.38;17.05;;;;;;;0.50;100.00;96881.16;5013629;28;20532;-83
2023/01/27 04:26:20;;;;;;;45.90;18.13;;;;;;;0.53;100.00;96881.91;5021232;28;20459;-84
2023/01/27 04:28:46;;;;;;;42.38;16.40;;;;;;;0.60;100.00;96889.59;5024340;28;20467;-84
2023/01/27 04:31:13;;;;;;;42.97;17.17;;;;;;;0.60;100.00;96886.97;5002377;28;20120;-85
2023/01/27 04:33:38;;;;;;;47.03;19.45;;;;;;;0.63;100.00;96898.25;5005407;28;20499;-84
2023/01/27 04:36:04;;;;;;;52.13;19.80;;;;;;;0.59;100.00;96907.16;5022933;28;20025;-84
2023/01/27 04:38:29;;;;;;;41.90;18.75;;;;;;;0.62;100.00;96920.19;5008263;28;20025;-84
2023/01/27 04:40:55;;;;;;;44.03;17.48;;;;;;;0.52;100.00;96909.13;5029809;28;20029;-84
2023/01/27 04:43:20;;;;;;;43.10;19.27;;;;;;;0.44;100.00;96920.81;5010962;28;20021;-85
2023/01/27 04:45:46;;;;;;;40.05;17.50;;;;;;;0.51;100.00;96936.34;5014900;28;20029;-84
2023/01/27 04:48:11;;;;;;;41.20;17.70;;;;;;;0.59;100.00;96948.38;4998806;28;20025;-83
2023/01/27 04:50:37;;;;;;;39.20;16.88;;;;;;;0.55;100.00;96943.22;5016098;28;20029;-85
2023/01/27 04:53:02;;;;;;;36.78;15.88;;;;;;;0.57;100.00;96943.19;5004890;28;20049;-82
2023/01/27 04:55:28;;;;;;;43.65;17.17;;;;;;;0.54;100.00;96944.16;5021529;28;20033;-86
2023/01/27 04:57:53;;;;;;;37.70;15.65;;;;;;;0.44;100.00;96936.59;5003668;28;20029;-84
2023/01/27 05:00:19;;;;;;;33.80;14.70;;;;;;;0.53;100.00;96942.41;5013373;28;20510;-85
2023/01/27 05:02:45;;;;;;;38.17;15.20;;;;;;;0.63;100.00;96944.75;5016266;28;20116;-85
2023/01/27 05:05:10;;;;;;;35.03;15.07;;;;;;;0.65;100.00;96935.88;5032558;28;20021;-84
2023/01/27 05:07:37;;;;;;;31.23;13.85;;;;;;;0.57;100.00;96919.50;5022302;28;20017;-85
2023/01/27 05:10:03;;;;;;;30.40;14.65;;;;;;;0.57;100.00;96922.13;5015026;28;20025;-84
2023/01/27 05:12:29;;;;;;;29.10;12.75;;;;;;;0.57;100.00;96922.13;5023672;28;20476;-85
2023/01/27 05:14:54;;;;;;;29.45;11.00;;;;;;;0.54;100.00;96915.22;5009517;28;20029;-84
2023/01/27 05:17:20;;;;;;;27.60;11.98;;;;;;;0.42;100.00;96896.34;5022790;28;20108;-84
2023/01/27 05:19:45;;;;;;;27.60;11.52;;;;;;;0.34;100.00;96888.69;5013518;28;20040;-83
2023/01/27 05:22:11;;;;;;;25.58;11.27;;;;;;;0.36;100.00;96896.53;5025874;28;20029;-86
2023/01/27 05:24:37;;;;;;;25.15;11.70;;;;;;;0.34;100.00;96901.00;5004766;28;20083;-74
2023/01/27 05:27:03;;;;;;;27.83;12.15;;;;;;;0.36;100.00;96902.66;5011929;28;20029;-84
2023/01/27 05:29:28;;;;;;;28.13;11.60;;;;;;;0.35;100.00;96900.94;5023792;28;20407;-84
2023/01/27 05:31:54;;;;;;;28.23;11.45;;;;;;;0.29;100.00;96889.75;5016258;28;20028;-84
2023/01/27 05:34:20;;;;;;;29.38;11.55;;;;;;;0.32;100.00;96894.91;5014396;28;20087;-84
2023/01/27 05:36:45;;;;;;;40.58;14.95;;;;;;;0.29;100.00;96880.09;5016149;28;20037;-84
2023/01/27 05:39:11;;;;;;;31.23;12.70;;;;;;;0.39;100.00;96892.03;5030366;28;20104;-85
2023/01/27 05:41:36;;;;;;;34.30;14.65;;;;;;;0.43;100.00;96898.91;5023754;28;20029;-84
2023/01/27 05:44:02;;;;;;;37.40;14.27;;;;;;;0.46;100.00;96890.91;5022222;28;20025;-84
2023/01/27 05:46:30;;;;;;;35.33;13.15;;;;;;;0.46;100.00;96890.06;5025440;28;20037;-84
2023/01/27 05:49:00;;;;;;;33.55;13.13;;;;;;;0.46;100.00;96885.66;5017686;28;20021;-86
2023/01/27 05:51:28;;;;;;;67.72;26.60;;;;;;;0.52;100.00;96892.50;5028198;28;20048;-86
2023/01/27 05:53:54;;;;;;;45.67;20.48;;;;;;;0.35;100.00;96872.00;5019653;28;20049;-86
2023/01/27 05:56:21;;;;;;;40.53;13.52;;;;;;;0.42;100.00;96870.91;4994412;28;20022;-85
2023/01/27 05:58:46;;;;;;;38.78;14.15;;;;;;;0.33;100.00;96868.56;4992605;28;20474;-85
2023/01/27 06:01:18;;;;;;;38.95;16.42;;;;;;;0.36;100.00;96878.13;5015423;28;20104;-83
2023/01/27 06:03:44;;;;;;;42.75;17.25;;;;;;;0.40;100.00;96879.75;5015896;28;20033;-85
2023/01/27 06:06:31;;;;;;;44.15;16.70;;;;;;;0.47;100.00;96907.56;4999147;28;20037;-86
2023/01/27 06:08:57;;;;;;;49.60;18.30;;;;;;;0.39;100.00;96884.16;4999059;28;20176;-85
2023/01/27 06:11:23;;;;;;;46.38;16.95;;;;;;;0.40;100.00;96890.28;5015287;28;20536;-85
2023/01/27 06:13:50;;;;;;;35.30;15.43;;;;;;;0.53;100.00;96910.84;5015518;28;20045;-85
2023/01/27 06:16:17;;;;;;;33.85;13.82;;;;;;;0.61;100.00;96902.72;5015181;28;20029;-85
2023/01/27 06:18:42;;;;;;;26.65;12.27;;;;;;;0.67;100.00;96899.00;5015628;28;20025;-85
2023/01/27 06:21:09;;;;;;;28.83;12.32;;;;;;;0.72;100.00;96899.72;5015375;28;20408;-85
2023/01/27 06:23:35;;;;;;;32.45;11.30;;;;;;;0.72;100.00;96881.28;5014099;28;20033;-85
2023/01/27 06:26:07;;;;;;;24.67;11.98;;;;;;;0.88;100.00;96903.53;5014673;28;20567;-83
2023/01/27 06:28:33;;;;;;;28.88;10.85;;;;;;;0.78;100.00;96896.88;5011760;28;20026;-85
2023/01/27 06:31:16;;;;;;;31.48;12.00;;;;;;;0.86;100.00;96913.28;5015804;28;20114;-85
2023/01/27 06:33:41;;;;;;;28.85;12.05;;;;;;;0.96;100.00;96906.75;4998848;28;20033;-84
2023/01/27 06:36:09;;;;;;;35.35;14.82;;;;;;;0.80;100.00;96889.81;5015326;28;20087;-86
2023/01/27 06:38:38;;;;;;;43.78;17.73;;;;;;;0.71;100.00;96884.84;5032657;28;20033;-85
2023/01/27 06:41:04;;;;;;;35.65;15.05;;;;;;;0.84;100.00;96900.16;4995397;28;20040;-85
2023/01/27 06:43:29;;;;;;;31.27;14.68;;;;;;;0.83;100.00;96897.59;4994054;28;20037;-84
2023/01/27 06:45:58;;;;;;;29.05;11.73;;;;;;;0.76;100.00;96896.94;4998934;28;20037;-85
2023/01/27 06:48:24;;;;;;;31.23;13.52;;;;;;;0.91;100.00;96906.94;4998930;28;20021;-84
2023/01/27 06:50:54;;;;;;;26.75;12.02;;;;;;;0.93;100.00;96893.72;5014954;28;20033;-85
2023/01/27 06:53:19;;;;;;;41.17;16.92;;;;;;;1.01;100.00;96892.56;5015145;28;20053;-86
2023/01/27 06:55:45;;;;;;;34.85;15.30;;;;;;;1.09;100.00;96900.16;5015259;28;20036;-86
2023/01/27 06:58:11;;;;;;;36.20;14.18;;;;;;;1.10;100.00;96896.63;4998437;28;20037;-86
2023/01/27 07:00:38;;;;;;;41.72;18.83;;;;;;;1.12;100.00;96897.44;5002136;28;20520;-84
2023/01/27 07:03:04;;;;;;;27.35;11.98;;;;;;;1.11;100.00;96882.53;5015069;28;20018;-85
2023/01/27 07:05:30;;;;;;;27.27;13.25;;;;;;;1.11;100.00;96895.69;4998623;28;20037;-84
2023/01/27 07:07:56;;;;;;;29.00;12.57;;;;;;;1.02;100.00;96896.00;4998153;28;20017;-84
2023/01/27 07:10:21;;;;;;;30.42;12.98;;;;;;;1.06;100.00;96906.41;4997879;28;20512;-85
2023/01/27 07:12:47;;;;;;;26.30;12.80;;;;;;;1.05;100.00;96894.13;4997754;28;20548;-85
2023/01/27 07:15:13;;;;;;;42.05;19.80;;;;;;;0.97;100.00;96911.13;4998048;28;20032;-82
2023/01/27 07:17:38;;;;;;;34.83;15.65;;;;;;;0.99;100.00;96909.28;5014444;28;20030;-76
2023/01/27 07:20:13;;;;;;;28.67;12.82;;;;;;;0.98;100.00;96899.69;5014156;28;20025;-78
2023/01/27 07:22:39;;;;;;;27.50;12.00;;;;;;;1.03;100.00;96895.13;5031691;28;20025;-75
2023/01/27 07:25:07;;;;;;;30.65;12.43;;;;;;;1.17;100.00;96884.94;5031436;28;20457;-73
2023/01/27 07:27:33;;;;;;;31.23;14.70;;;;;;;1.25;100.00;96880.28;5013956;28;20014;-73
2023/01/27 07:29:58;;;;;;;38.03;17.17;;;;;;;1.52;100.00;96895.06;5030231;28;20032;-73
2023/01/27 07:32:24;;;;;;;47.65;19.65;;;;;;;1.51;100.00;96868.78;4996243;28;20025;-75
2023/01/27 07:34:49;;;;;;;58.80;23.67;;;;;;;1.56;100.00;96870.34;4995060;28;20513;-76
2023/01/27 07:37:15;;;;;;;83.43;34.80;;;;;;;1.59;100.00;96864.94;5011361;28;20095;-75
2023/01/27 07:39:41;;;;;;;63.17;27.00;;;;;;;1.51;100.00;96853.81;5029221;28;20417;-74
2023/01/27 07:42:08;;;;;;;48.70;21.63;;;;;;;1.69;100.00;96867.25;5011757;28;20056;-74
2023/01/27 07:44:33;;;;;;;52.83;23.77;;;;;;;1.71;100.00;96861.00;5011872;28;20511;-75
2023/01/27 07:46:59;;;;;;;49.42;22.60;;;;;;;1.83;100.00;96862.28;5011859;28;20052;-74
2023/01/27 07:49:25;;;;;;;41.85;20.52;;;;;;;1.85;100.00;96842.84;5029373;28;20028;-75
2023/01/27 07:51:50;;;;;;;53.72;23.38;;;;;;;1.78;100.00;96845.81;4995039;28;20418;-75
2023/01/27 07:54:16;;;;;;;55.42;22.48;;;;;;;1.77;100.00;96838.78;5028164;28;20451;-74
2023/01/27 07:56:42;;;;;;;49.00;21.55;;;;;;;1.95;100.00;96859.16;5001804;28;20037;-76
2023/01/27 07:59:09;;;;;;;46.08;19.17;;;;;;;2.03;100.00;96852.66;5025944;28;20088;-75
2023/01/27 08:01:35;;;;;;;45.45;18.27;;;;;;;2.03;100.00;96833.38;4999961;28;20033;-74
2023/01/27 08:04:01;;;;;;;42.80;18.63;;;;;;;2.18;100.00;96828.31;4988280;28;20056;-75
2023/01/27 08:06:27;;;;;;;44.13;17.83;;;;;;;2.25;100.00;96818.38;5020919;28;20029;-75
2023/01/27 08:08:52;;;;;;;35.60;15.93;;;;;;;2.15;100.00;96809.16;4999220;28;20377;-75
2023/01/27 08:11:18;;;;;;;37.35;17.38;;;;;;;2.15;100.00;96806.50;5003670;28;20527;-76
2023/01/27 08:13:43;;;;;;;35.97;14.77;;;;;;;2.17;100.00;96808.16;5000722;28;20509;-75
2023/01/27 08:16:13;;;;;;;39.83;16.52;;;;;;;2.21;100.00;96806.25;5017514;28;20025;-75
2023/01/27 08:18:39;;;;;;;37.47;17.63;;;;;;;2.28;100.00;96802.41;5016299;28;20545;-75
2023/01/27 08:21:07;;;;;;;36.53;15.52;;;;;;;2.23;100.00;96799.13;5000034;28;20045;-75
2023/01/27 08:23:33;;;;;;;35.03;14.85;;;;;;;1.87;100.00;96776.91;5000002;28;20113;-75
2023/01/27 08:26:00;;;;;;;27.92;12.50;;;;;;;1.98;100.00;96795.75;5003954;28;20478;-76
2023/01/27 08:28:28;;;;;;;28.67;13.25;;;;;;;1.96;100.00;96809.03;4981444;28;20025;-75
2023/01/27 08:30:54;;;;;;;27.42;11.57;;;;;;;1.79;100.00;96798.28;4999434;28;20116;-76
2023/01/27 08:33:23;;;;;;;26.50;11.68;;;;;;;1.80;100.00;96807.91;4987152;28;20563;-76
2023/01/27 08:35:49;;;;;;;25.58;11.77;;;;;;;1.72;100.00;96795.97;4986761;28;20103;-76
2023/01/27 08:38:17;;;;;;;26.30;11.65;;;;;;;1.78;100.00;96793.94;5004908;28;20523;-75
2023/01/27 08:40:44;;;;;;;30.08;12.50;;;;;;;2.01;100.00;96808.81;4986147;28;20463;-75
2023/01/27 08:43:09;;;;;;;27.88;12.57;;;;;;;2.12;100.00;96796.09;5007094;28;20021;-75
2023/01/27 08:45:35;;;;;;;28.50;14.13;;;;;;;2.09;100.00;96793.56;5025025;28;20520;-75
2023/01/27 08:48:04;;;;;;;28.73;13.98;;;;;;;2.13;100.00;96787.22;4995661;28;20033;-75
2023/01/27 08:50:31;;;;;;;26.80;13.32;;;;;;;2.08;100.00;96783.94;5003600;28;20100;-76
2023/01/27 08:52:58;;;;;;;34.65;14.55;;;;;;;2.19;100.00;96789.63;5025858;28;20054;-77
2023/01/27 08:55:31;;;;;;;29.88;14.45;;;;;;;2.38;100.00;96792.34;4998583;28;20387;-76
2023/01/27 08:57:57;;;;;;;29.77;14.20;;;;;;;2.11;100.00;96760.06;4991169;28;20107;-76
2023/01/27 09:00:23;;;;;;;30.92;12.60;;;;;;;1.94;100.00;96757.28;5011210;28;20025;-76
2023/01/27 09:02:52;;;;;;;26.92;12.38;;;;;;;1.95;100.00;96761.63;5005737;28;20032;-76
2023/01/27 09:05:18;;;;;;;29.80;13.25;;;;;;;2.20;100.00;96762.31;5017912;28;20030;-76
2023/01/27 09:07:45;;;;;;;27.35;12.25;;;;;;;2.49;100.00;96764.56;5023918;28;20457;-75
2023/01/27 09:10:11;;;;;;;35.20;16.50;;;;;;;2.68;100.00;96752.31;5009752;28;20390;-75
2023/01/27 09:12:36;;;;;;;36.40;16.20;;;;;;;2.97;100.00;96750.16;4994614;28;20041;-75
2023/01/27 09:15:02;;;;;;;34.88;14.57;;;;;;;3.08;100.00;96721.47;5018067;28;20025;-76
2023/01/27 09:17:27;;;;;;;41.75;19.05;;;;;;;2.82;100.00;96708.59;4998294;28;20485;-75
2023/01/27 09:19:53;;;;;;;43.42;19.25;;;;;;;3.11;100.00;96718.69;4996842;28;20037;-76
2023/01/27 09:22:18;;;;;;;44.45;19.92;;;;;;;3.16;100.00;96714.94;4999126;28;20026;-76
2023/01/27 09:24:44;;;;;;;45.83;19.02;;;;;;;3.04;100.00;96698.78;5029330;28;21770;-76
2023/01/27 09:27:09;;;;;;;37.72;15.85;;;;;;;2.92;100.00;96688.78;4987210;28;20054;-77
2023/01/27 09:29:35;;;;;;;35.72;16.15;;;;;;;2.70;100.00;96686.25;5003029;28;20779;-77
2023/01/27 09:32:01;;;;;;;37.22;15.77;;;;;;;2.62;100.00;96681.31;5007807;28;20029;-77
2023/01/27 09:34:27;;;;;;;36.30;15.75;;;;;;;2.58;100.00;96673.63;4989396;28;20053;-77
2023/01/27 09:37:06;;;;;;;35.95;16.70;;;;;;;2.68;100.00;96675.75;5002460;28;20558;-78
2023/01/27 09:39:36;;;;;;;40.28;19.88;;;;;;;2.55;100.00;96679.84;5009286;28;20036;-77
2023/01/27 09:42:22;;;;;;;35.10;17.48;;;;;;;2.55;100.00;96693.06;5004552;28;20029;-76
2023/01/27 09:45:09;;;;;;;44.80;20.98;;;;;;;2.70;100.00;96694.19;4976778;28;20132;-76
2023/01/27 09:48:08;;;;;;;52.35;25.83;;;;;;;2.25;100.00;96670.66;5018486;28;20625;-76
2023/01/27 09:50:50;;;;;;;51.83;21.77;;;;;;;2.26;100.00;96672.38;4985066;28;20036;-77
2023/01/27 09:53:19;;;;;;;46.75;19.52;;;;;;;2.41;100.00;96681.41;5000466;28;20088;-76
2023/01/27 09:55:57;;;;;;;35.78;15.60;;;;;;;2.55;100.00;96684.31;5031507;28;20044;-75
2023/01/27 09:58:26;;;;;;;43.05;17.88;;;;;;;2.49;100.00;96677.50;5031961;28;20060;-76
2023/01/27 10:01:03;;;;;;;38.75;16.80;;;;;;;2.58;100.00;96671.84;5031503;28;20030;-76
2023/01/27 10:03:32;;;;;;;33.90;16.42;;;;;;;2.62;100.00;96664.59;5031759;28;20037;-76
2023/01/27 10:06:22;;;;;;;48.03;20.17;;;;;;;2.84;100.00;96670.63;5013777;28;20063;-76
2023/01/27 10:09:11;;;;;;;31.50;15.30;;;;;;;2.87;100.00;96664.34;5031625;28;20037;-76
2023/01/27 10:11:55;;;;;;;43.58;16.52;;;;;;;2.88;100.00;96652.88;5027572;28;20036;-77
2023/01/27 10:14:35;;;;;;;32.17;13.90;;;;;;;2.77;100.00;96647.25;5031988;28;20595;-76
2023/01/27 10:17:06;;;;;;;32.05;14.48;;;;;;;2.82;100.00;96647.88;5030942;28;20049;-76
2023/01/27 10:19:47;;;;;;;39.85;16.48;;;;;;;2.80;100.00;96642.66;5032457;28;20501;-76
2023/01/27 10:22:21;;;;;;;43.20;16.10;;;;;;;2.59;100.00;96627.78;5031201;28;20104;-76
2023/01/27 10:25:02;;;;;;;36.20;16.45;;;;;;;2.71;100.00;96637.78;5013525;28;20029;-76
2023/01/27 10:27:34;;;;;;;40.90;18.13;;;;;;;2.71;100.00;96633.38;5025546;28;20025;-76
2023/01/27 10:30:14;;;;;;;31.75;15.48;;;;;;;2.96;100.00;96654.22;5013561;28;20489;-78
2023/01/27 10:33:03;;;;;;;36.92;16.20;;;;;;;3.06;100.00;96639.69;5013624;28;20124;-76
2023/01/27 10:35:48;;;;;;;32.90;15.55;;;;;;;3.01;100.00;96622.34;5017149;28;20476;-76
2023/01/27 10:38:25;;;;;;;36.83;16.55;;;;;;;3.25;100.00;96618.53;5029503;28;20516;-76
2023/01/27 10:41:09;;;;;;;35.42;16.48;;;;;;;3.27;100.00;96628.09;4996699;28;20068;-76
2023/01/27 10:43:47;;;;;;;37.30;17.50;;;;;;;3.34;100.00;96612.78;5026055;28;20123;-76
2023/01/27 10:46:20;;;;;;;35.72;17.02;;;;;;;3.06;100.00;96597.41;5030486;28;20499;-76
2023/01/27 10:48:46;;;;;;;40.30;17.55;;;;;;;2.98;100.00;96618.06;5030912;28;20412;-75
2023/01/27 10:51:15;;;;;;;37.25;16.77;;;;;;;2.90;100.00;96627.25;5013373;28;20036;-76
2023/01/27 10:54:12;;;;;;;37.42;16.88;;;;;;;2.85;100.00;96623.97;5005916;28;20050;-76
2023/01/27 10:56:45;;;;;;;29.65;13.05;;;;;;;2.80;100.00;96615.41;5025797;28;20107;-76
2023/01/27 10:59:20;;;;;;;27.75;12.73;;;;;;;2.79;100.00;96616.34;4996460;28;20030;-76
2023/01/27 11:01:50;;;;;;;28.90;12.70;;;;;;;2.90;100.00;96621.97;5012945;28;20401;-76
2023/01/27 11:04:42;;;;;;;34.17;14.30;;;;;;;2.83;100.00;96610.00;4989792;28;20092;-76
2023/01/27 11:07:15;;;;;;;31.40;13.43;;;;;;;2.91;100.00;96623.69;5012918;28;20029;-75
2023/01/27 11:09:47;;;;;;;27.48;11.27;;;;;;;2.87;100.00;96616.81;5012260;28;20515;-76
2023/01/27 11:12:13;;;;;;;23.88;10.52;;;;;;;2.91;100.00;96626.31;5012660;28;20029;-77
2023/01/27 11:14:50;;;;;;;22.10;9.52;;;;;;;2.84;100.00;96617.84;5012713;28;20036;-77
2023/01/27 11:17:32;;;;;;;23.38;9.23;;;;;;;2.79;100.00;96613.69;5012687;28;20079;-77
2023/01/27 11:20:05;;;;;;;27.27;12.00;;;;;;;3.02;100.00;96613.47;5012362;28;20033;-77
2023/01/27 11:22:39;;;;;;;28.00;12.35;;;;;;;3.05;100.00;96600.13;5011798;28;20045;-76
2023/01/27 11:25:23;;;;;;;25.77;12.02;;;;;;;3.05;100.00;96579.84;5012512;28;20030;-77
2023/01/27 11:27:59;;;;;;;23.60;11.32;;;;;;;3.00;100.00;96583.66;5011274;28;20031;-76
2023/01/27 11:30:42;;;;;;;27.70;13.68;;;;;;;2.93;100.00;96595.41;5027363;28;20027;-76
2023/01/27 11:33:32;;;;;;;28.67;13.35;;;;;;;2.82;100.00;96590.66;5013882;28;20024;-76
2023/01/27 11:35:58;;;;;;;28.80;13.93;;;;;;;2.74;100.00;96583.06;5009887;28;20908;-75
2023/01/27 11:38:24;;;;;;;24.27;12.73;;;;;;;2.69;100.00;96587.72;5013910;28;20037;-76
2023/01/27 11:40:50;;;;;;;24.95;12.30;;;;;;;2.74;100.00;96600.69;5013763;28;20457;-75
2023/01/27 11:43:19;;;;;;;56.72;23.27;;;;;;;2.64;100.00;96608.22;5014092;28;20029;-75
2023/01/27 11:45:46;;;;;;;69.97;30.33;;;;;;;2.62;100.00;96607.41;5013784;28;20029;-76
2023/01/27 11:48:14;;;;;;;30.15;14.07;;;;;;;2.71;100.00;96612.25;4997670;28;20025;-77
2023/01/27 11:50:41;;;;;;;25.08;11.50;;;;;;;2.71;100.00;96600.84;5013132;28;20531;-76
2023/01/27 11:53:15;;;;;;;24.65;11.98;;;;;;;2.64;100.00;96595.00;5008291;28;20603;-76
2023/01/27 11:55:44;;;;;;;22.60;10.93;;;;;;;2.39;100.00;96583.84;5025424;28;20033;-76
2023/01/27 11:58:21;;;;;;;21.58;10.13;;;;;;;2.32;100.00;96582.41;5009681;28;20056;-76
2023/01/27 12:01:08;;;;;;;51.58;19.10;;;;;;;2.30;100.00;96586.91;4993827;28;20057;-75
2023/01/27 12:03:43;;;;;;;28.75;13.02;;;;;;;2.46;100.00;96601.09;5024824;28;20514;-76